sensor_id;sensor_type;location;lat;lon;timestamp;temperature;humidity
24802;DHT22;12898;50.520;12.152;2023-02-02T00:00:51;1.80;99.90
24802;DHT22;12898;50.520;12.152;2023-02-02T00:03:17;1.80;99.90
24802;DHT22;12898;50.520;12.152;2023-02-02T00:05:47;1.80;99.90
24802;DHT22;12898;50.520;12.152;2023-02-02T00:08:15;1.80;99.90
24802;DHT22;12898;50.520;12.152;2023-02-02T00:10:41;1.80;99.90
24802;DHT22;12898;50.520;12.152;2023-02-02T00:13:07;1.80;99.90
24802;DHT22;12898;50.520;12.152;2023-02-02T00:15:33;1.80;99.90
24802;DHT22;12898;50.520;12.152;2023-02-02T00:17:59;1.70;99.90
24802;DHT22;12898;50.520;12.152;2023-02-02T00:20:24;1.70;99.90
24802;DHT22;12898;50.520;12.152;2023-02-02T00:22:50;1.70;99.90
24802;DHT22;12898;50.520;12.152;2023-02-02T00:25:16;1.60;99.90
24802;DHT22;12898;50.520;12.152;2023-02-02T00:27:42;1.50;99.90
24802;DHT22;12898;50.520;12.152;2023-02-02T00:30:08;1.50;99.90
24802;DHT22;12898;50.520;12.152;2023-02-02T00:32:34;1.60;99.90
24802;DHT22;12898;50.520;12.152;2023-02-02T00:34:59;1.70;99.90
24802;DHT22;12898;50.520;12.152;2023-02-02T00:37:25;1.70;99.90
24802;DHT22;12898;50.520;12.152;2023-02-02T00:39:51;1.70;99.90
24802;DHT22;12898;50.520;12.152;2023-02-02T00:42:17;1.70;99.90
24802;DHT22;12898;50.520;12.152;2023-02-02T00:44:42;1.70;99.90
24802;DHT22;12898;50.520;12.152;2023-02-02T00:47:27;1.70;99.90
24802;DHT22;12898;50.520;12.152;2023-02-02T00:49:52;1.70;99.90
24802;DHT22;12898;50.520;12.152;2023-02-02T00:52:18;1.80;99.90
24802;DHT22;12898;50.520;12.152;2023-02-02T00:54:44;1.80;99.90
24802;DHT22;12898;50.520;12.152;2023-02-02T00:57:12;1.90;99.90
24802;DHT22;12898;50.520;12.152;2023-02-02T00:59:39;1.90;99.90
24802;DHT22;12898;50.520;12.152;2023-02-02T01:02:05;1.90;99.90
24802;DHT22;12898;50.520;12.152;2023-02-02T01:04:31;1.90;99.90
24802;DHT22;12898;50.520;12.152;2023-02-02T01:06:57;1.90;99.90
24802;DHT22;12898;50.520;12.152;2023-02-02T01:09:22;1.90;99.90
24802;DHT22;12898;50.520;12.152;2023-02-02T01:11:48;1.90;99.90
24802;DHT22;12898;50.520;12.152;2023-02-02T01:14:14;2.00;99.90
24802;DHT22;12898;50.520;12.152;2023-02-02T01:16:39;2.00;99.90
24802;DHT22;12898;50.520;12.152;2023-02-02T01:19:05;2.00;99.90
24802;DHT22;12898;50.520;12.152;2023-02-02T01:21:31;2.00;99.90
24802;DHT22;12898;50.520;12.152;2023-02-02T01:23:56;2.00;99.90
24802;DHT22;12898;50.520;12.152;2023-02-02T01:26:22;2.00;99.90
24802;DHT22;12898;50.520;12.152;2023-02-02T01:28:49;2.00;99.90
24802;DHT22;12898;50.520;12.152;2023-02-02T01:31:17;1.90;99.90
24802;DHT22;12898;50.520;12.152;2023-02-02T01:33:46;1.90;99.90
24802;DHT22;12898;50.520;12.152;2023-02-02T01:36:22;1.90;99.90
24802;DHT22;12898;50.520;12.152;2023-02-02T01:38:49;1.80;99.90
24802;DHT22;12898;50.520;12.152;2023-02-02T01:41:20;1.80;99.90
24802;DHT22;12898;50.520;12.152;2023-02-02T01:46:21;1.70;99.90
24802;DHT22;12898;50.520;12.152;2023-02-02T01:49:08;1.70;99.90
24802;DHT22;12898;50.520;12.152;2023-02-02T01:51:56;1.70;99.90
24802;DHT22;12898;50.520;12.152;2023-02-02T01:54:37;1.70;99.90
24802;DHT22;12898;50.520;12.152;2023-02-02T02:00:22;1.70;99.90
24802;DHT22;12898;50.520;12.152;2023-02-02T02:02:52;1.70;99.90
24802;DHT22;12898;50.520;12.152;2023-02-02T02:05:27;1.80;99.90
24802;DHT22;12898;50.520;12.152;2023-02-02T02:08:09;1.80;99.90
24802;DHT22;12898;50.520;12.152;2023-02-02T02:10:38;1.80;99.90
24802;DHT22;12898;50.520;12.152;2023-02-02T02:13:04;1.90;99.90
24802;DHT22;12898;50.520;12.152;2023-02-02T02:15:35;1.90;99.90
24802;DHT22;12898;50.520;12.152;2023-02-02T02:18:39;1.80;99.90
24802;DHT22;12898;50.520;12.152;2023-02-02T02:21:25;1.80;99.90
24802;DHT22;12898;50.520;12.152;2023-02-02T02:27:51;1.80;99.90
24802;DHT22;12898;50.520;12.152;2023-02-02T02:33:11;1.70;99.90
24802;DHT22;12898;50.520;12.152;2023-02-02T02:35:56;1.60;99.90
24802;DHT22;12898;50.520;12.152;2023-02-02T02:38:48;1.50;99.90
24802;DHT22;12898;50.520;12.152;2023-02-02T02:41:20;1.40;99.90
24802;DHT22;12898;50.520;12.152;2023-02-02T02:44:00;1.40;99.90
24802;DHT22;12898;50.520;12.152;2023-02-02T02:46:30;1.40;99.90
24802;DHT22;12898;50.520;12.152;2023-02-02T02:48:57;1.50;99.90
24802;DHT22;12898;50.520;12.152;2023-02-02T02:51:43;1.40;99.90
24802;DHT22;12898;50.520;12.152;2023-02-02T02:54:24;1.40;99.90
24802;DHT22;12898;50.520;12.152;2023-02-02T02:57:33;1.40;99.90
24802;DHT22;12898;50.520;12.152;2023-02-02T03:08:38;1.50;99.90
24802;DHT22;12898;50.520;12.152;2023-02-02T03:11:07;1.50;99.90
24802;DHT22;12898;50.520;12.152;2023-02-02T03:13:33;1.50;99.90
24802;DHT22;12898;50.520;12.152;2023-02-02T03:15:59;1.40;99.90
24802;DHT22;12898;50.520;12.152;2023-02-02T03:18:30;1.40;99.90
24802;DHT22;12898;50.520;12.152;2023-02-02T03:20:56;1.40;99.90
24802;DHT22;12898;50.520;12.152;2023-02-02T03:23:23;1.30;99.90
24802;DHT22;12898;50.520;12.152;2023-02-02T03:25:49;1.30;99.90
24802;DHT22;12898;50.520;12.152;2023-02-02T03:28:15;1.40;99.90
24802;DHT22;12898;50.520;12.152;2023-02-02T03:30:42;1.40;99.90
24802;DHT22;12898;50.520;12.152;2023-02-02T03:33:10;1.40;99.90
24802;DHT22;12898;50.520;12.152;2023-02-02T03:35:36;1.50;99.90
24802;DHT22;12898;50.520;12.152;2023-02-02T03:38:02;1.40;99.90
24802;DHT22;12898;50.520;12.152;2023-02-02T03:40:28;1.40;99.90
24802;DHT22;12898;50.520;12.152;2023-02-02T03:42:54;1.40;99.90
24802;DHT22;12898;50.520;12.152;2023-02-02T03:45:20;1.50;99.90
24802;DHT22;12898;50.520;12.152;2023-02-02T03:47:46;1.50;99.90
24802;DHT22;12898;50.520;12.152;2023-02-02T03:50:12;1.60;99.90
24802;DHT22;12898;50.520;12.152;2023-02-02T03:52:37;1.60;99.90
24802;DHT22;12898;50.520;12.152;2023-02-02T03:55:04;1.60;99.90
24802;DHT22;12898;50.520;12.152;2023-02-02T03:57:30;1.60;99.90
24802;DHT22;12898;50.520;12.152;2023-02-02T03:59:55;1.60;99.90
24802;DHT22;12898;50.520;12.152;2023-02-02T04:02:21;1.50;99.90
24802;DHT22;12898;50.520;12.152;2023-02-02T04:04:47;1.50;99.90
24802;DHT22;12898;50.520;12.152;2023-02-02T04:07:13;1.50;99.90
24802;DHT22;12898;50.520;12.152;2023-02-02T04:09:39;1.40;99.90
24802;DHT22;12898;50.520;12.152;2023-02-02T04:12:05;1.50;99.90
24802;DHT22;12898;50.520;12.152;2023-02-02T04:14:30;1.50;99.90
24802;DHT22;12898;50.520;12.152;2023-02-02T04:16:56;1.60;99.90
24802;DHT22;12898;50.520;12.152;2023-02-02T04:19:22;1.60;99.90
24802;DHT22;12898;50.520;12.152;2023-02-02T04:21:47;1.60;99.90
24802;DHT22;12898;50.520;12.152;2023-02-02T04:24:14;1.70;99.90
24802;DHT22;12898;50.520;12.152;2023-02-02T04:26:40;1.70;99.90
24802;DHT22;12898;50.520;12.152;2023-02-02T04:29:06;1.80;99.90
24802;DHT22;12898;50.520;12.152;2023-02-02T04:31:32;1.80;99.90
24802;DHT22;12898;50.520;12.152;2023-02-02T04:33:58;1.80;99.90
24802;DHT22;12898;50.520;12.152;2023-02-02T04:36:24;1.80;99.90
24802;DHT22;12898;50.520;12.152;2023-02-02T04:38:51;1.80;99.90
24802;DHT22;12898;50.520;12.152;2023-02-02T04:41:18;1.80;99.90
24802;DHT22;12898;50.520;12.152;2023-02-02T04:43:44;1.80;99.90
24802;DHT22;12898;50.520;12.152;2023-02-02T04:46:10;1.80;99.90
24802;DHT22;12898;50.520;12.152;2023-02-02T04:48:36;1.80;99.90
24802;DHT22;12898;50.520;12.152;2023-02-02T04:51:04;1.70;99.90
24802;DHT22;12898;50.520;12.152;2023-02-02T04:53:32;1.70;99.90
24802;DHT22;12898;50.520;12.152;2023-02-02T04:56:04;1.70;99.90
24802;DHT22;12898;50.520;12.152;2023-02-02T04:58:35;1.60;99.90
24802;DHT22;12898;50.520;12.152;2023-02-02T05:01:00;1.70;99.90
24802;DHT22;12898;50.520;12.152;2023-02-02T05:03:26;1.70;99.90
24802;DHT22;12898;50.520;12.152;2023-02-02T05:06:03;1.70;99.90
24802;DHT22;12898;50.520;12.152;2023-02-02T05:08:29;1.70;99.90
24802;DHT22;12898;50.520;12.152;2023-02-02T05:10:55;1.70;99.90
24802;DHT22;12898;50.520;12.152;2023-02-02T05:13:20;1.60;99.90
24802;DHT22;12898;50.520;12.152;2023-02-02T05:15:47;1.60;99.90
24802;DHT22;12898;50.520;12.152;2023-02-02T05:18:13;1.60;99.90
24802;DHT22;12898;50.520;12.152;2023-02-02T05:20:38;1.60;99.90
24802;DHT22;12898;50.520;12.152;2023-02-02T05:23:04;1.50;99.90
24802;DHT22;12898;50.520;12.152;2023-02-02T05:25:30;1.40;99.90
24802;DHT22;12898;50.520;12.152;2023-02-02T05:27:55;1.30;99.90
24802;DHT22;12898;50.520;12.152;2023-02-02T05:30:21;1.30;99.90
24802;DHT22;12898;50.520;12.152;2023-02-02T05:32:47;1.40;99.90
24802;DHT22;12898;50.520;12.152;2023-02-02T05:35:12;1.40;99.90
24802;DHT22;12898;50.520;12.152;2023-02-02T05:37:38;1.50;99.90
24802;DHT22;12898;50.520;12.152;2023-02-02T05:40:04;1.50;99.90
24802;DHT22;12898;50.520;12.152;2023-02-02T05:42:30;1.50;99.90
24802;DHT22;12898;50.520;12.152;2023-02-02T05:44:56;1.60;99.90
24802;DHT22;12898;50.520;12.152;2023-02-02T05:47:22;1.60;99.90
24802;DHT22;12898;50.520;12.152;2023-02-02T05:49:48;1.70;99.90
24802;DHT22;12898;50.520;12.152;2023-02-02T05:52:17;1.60;99.90
24802;DHT22;12898;50.520;12.152;2023-02-02T05:54:44;1.60;99.90
24802;DHT22;12898;50.520;12.152;2023-02-02T05:57:10;1.70;99.90
24802;DHT22;12898;50.520;12.152;2023-02-02T05:59:35;1.70;99.90
24802;DHT22;12898;50.520;12.152;2023-02-02T06:02:01;1.70;99.90
24802;DHT22;12898;50.520;12.152;2023-02-02T06:04:27;1.70;99.90
24802;DHT22;12898;50.520;12.152;2023-02-02T06:06:53;1.60;99.90
24802;DHT22;12898;50.520;12.152;2023-02-02T06:09:18;1.60;99.90
24802;DHT22;12898;50.520;12.152;2023-02-02T06:11:45;1.60;99.90
24802;DHT22;12898;50.520;12.152;2023-02-02T06:14:12;1.50;99.90
24802;DHT22;12898;50.520;12.152;2023-02-02T06:16:37;1.50;99.90
24802;DHT22;12898;50.520;12.152;2023-02-02T06:19:03;1.50;99.90
24802;DHT22;12898;50.520;12.152;2023-02-02T06:21:29;1.40;99.90
24802;DHT22;12898;50.520;12.152;2023-02-02T06:23:58;1.50;99.90
24802;DHT22;12898;50.520;12.152;2023-02-02T06:26:23;1.60;99.90
24802;DHT22;12898;50.520;12.152;2023-02-02T06:28:51;1.60;99.90
24802;DHT22;12898;50.520;12.152;2023-02-02T06:31:18;1.50;99.90
24802;DHT22;12898;50.520;12.152;2023-02-02T06:33:45;1.50;99.90
24802;DHT22;12898;50.520;12.152;2023-02-02T06:36:11;1.40;99.90
24802;DHT22;12898;50.520;12.152;2023-02-02T06:38:37;1.50;99.90
24802;DHT22;12898;50.520;12.152;2023-02-02T06:41:02;1.50;99.90
24802;DHT22;12898;50.520;12.152;2023-02-02T06:43:29;1.60;99.90
24802;DHT22;12898;50.520;12.152;2023-02-02T06:45:56;1.60;99.90
24802;DHT22;12898;50.520;12.152;2023-02-02T06:48:23;1.60;99.90
24802;DHT22;12898;50.520;12.152;2023-02-02T06:50:48;1.60;99.90
24802;DHT22;12898;50.520;12.152;2023-02-02T06:53:14;1.60;99.90
24802;DHT22;12898;50.520;12.152;2023-02-02T06:55:52;1.70;99.90
24802;DHT22;12898;50.520;12.152;2023-02-02T06:58:18;1.70;99.90
24802;DHT22;12898;50.520;12.152;2023-02-02T07:00:44;1.80;99.90
24802;DHT22;12898;50.520;12.152;2023-02-02T07:03:10;1.80;99.90
24802;DHT22;12898;50.520;12.152;2023-02-02T07:05:35;1.80;99.90
24802;DHT22;12898;50.520;12.152;2023-02-02T07:08:01;1.80;99.90
24802;DHT22;12898;50.520;12.152;2023-02-02T07:10:27;1.70;99.90
24802;DHT22;12898;50.520;12.152;2023-02-02T07:12:53;1.80;99.90
24802;DHT22;12898;50.520;12.152;2023-02-02T07:15:19;1.80;99.90
24802;DHT22;12898;50.520;12.152;2023-02-02T07:17:44;1.90;99.90
24802;DHT22;12898;50.520;12.152;2023-02-02T07:20:10;1.90;99.90
24802;DHT22;12898;50.520;12.152;2023-02-02T07:22:40;2.00;99.90
24802;DHT22;12898;50.520;12.152;2023-02-02T07:25:06;2.10;99.90
24802;DHT22;12898;50.520;12.152;2023-02-02T07:27:33;2.00;99.90
24802;DHT22;12898;50.520;12.152;2023-02-02T07:29:58;2.10;99.90
24802;DHT22;12898;50.520;12.152;2023-02-02T07:32:24;2.10;99.90
24802;DHT22;12898;50.520;12.152;2023-02-02T07:34:50;2.10;99.90
24802;DHT22;12898;50.520;12.152;2023-02-02T07:37:16;2.10;99.90
24802;DHT22;12898;50.520;12.152;2023-02-02T07:39:41;2.10;99.90
24802;DHT22;12898;50.520;12.152;2023-02-02T07:42:11;2.10;99.90
24802;DHT22;12898;50.520;12.152;2023-02-02T07:44:37;2.10;99.90
24802;DHT22;12898;50.520;12.152;2023-02-02T07:47:03;2.30;99.90
24802;DHT22;12898;50.520;12.152;2023-02-02T07:49:29;2.30;99.90
24802;DHT22;12898;50.520;12.152;2023-02-02T07:51:55;2.40;99.90
24802;DHT22;12898;50.520;12.152;2023-02-02T07:54:21;2.50;99.90
24802;DHT22;12898;50.520;12.152;2023-02-02T07:56:47;2.50;99.90
24802;DHT22;12898;50.520;12.152;2023-02-02T07:59:13;2.60;99.90
24802;DHT22;12898;50.520;12.152;2023-02-02T08:01:38;2.60;99.90
24802;DHT22;12898;50.520;12.152;2023-02-02T08:04:04;2.70;99.90
24802;DHT22;12898;50.520;12.152;2023-02-02T08:06:32;2.70;99.90
24802;DHT22;12898;50.520;12.152;2023-02-02T08:09:00;2.80;99.90
24802;DHT22;12898;50.520;12.152;2023-02-02T08:11:28;2.80;99.90
24802;DHT22;12898;50.520;12.152;2023-02-02T08:13:56;2.90;99.90
24802;DHT22;12898;50.520;12.152;2023-02-02T08:16:24;2.90;99.90
24802;DHT22;12898;50.520;12.152;2023-02-02T08:18:50;2.90;99.90
24802;DHT22;12898;50.520;12.152;2023-02-02T08:21:16;2.90;99.90
24802;DHT22;12898;50.520;12.152;2023-02-02T08:23:42;3.00;99.90
24802;DHT22;12898;50.520;12.152;2023-02-02T08:26:22;3.00;99.90
24802;DHT22;12898;50.520;12.152;2023-02-02T08:28:58;3.10;99.90
24802;DHT22;12898;50.520;12.152;2023-02-02T08:31:27;3.10;99.90
24802;DHT22;12898;50.520;12.152;2023-02-02T08:33:54;3.10;99.90
24802;DHT22;12898;50.520;12.152;2023-02-02T08:36:23;3.10;99.90
24802;DHT22;12898;50.520;12.152;2023-02-02T08:38:50;3.20;99.90
24802;DHT22;12898;50.520;12.152;2023-02-02T08:41:19;3.20;99.90
24802;DHT22;12898;50.520;12.152;2023-02-02T08:43:47;3.30;99.90
24802;DHT22;12898;50.520;12.152;2023-02-02T08:46:15;3.30;99.90
24802;DHT22;12898;50.520;12.152;2023-02-02T08:48:41;3.40;99.90
24802;DHT22;12898;50.520;12.152;2023-02-02T08:51:10;3.40;99.90
24802;DHT22;12898;50.520;12.152;2023-02-02T08:53:37;3.40;99.90
24802;DHT22;12898;50.520;12.152;2023-02-02T08:56:05;3.50;99.90
24802;DHT22;12898;50.520;12.152;2023-02-02T08:58:34;3.50;99.90
24802;DHT22;12898;50.520;12.152;2023-02-02T09:01:16;3.60;99.90
24802;DHT22;12898;50.520;12.152;2023-02-02T09:03:43;3.60;99.90
24802;DHT22;12898;50.520;12.152;2023-02-02T09:06:15;3.70;99.90
24802;DHT22;12898;50.520;12.152;2023-02-02T09:08:41;3.70;99.90
24802;DHT22;12898;50.520;12.152;2023-02-02T09:11:13;3.70;99.90
24802;DHT22;12898;50.520;12.152;2023-02-02T09:13:41;3.80;99.90
24802;DHT22;12898;50.520;12.152;2023-02-02T09:16:11;3.80;99.90
24802;DHT22;12898;50.520;12.152;2023-02-02T09:18:39;3.80;99.90
24802;DHT22;12898;50.520;12.152;2023-02-02T09:21:08;3.70;99.90
24802;DHT22;12898;50.520;12.152;2023-02-02T09:23:37;3.80;99.90
24802;DHT22;12898;50.520;12.152;2023-02-02T09:28:42;3.80;99.90
24802;DHT22;12898;50.520;12.152;2023-02-02T09:31:10;3.80;99.90
24802;DHT22;12898;50.520;12.152;2023-02-02T09:33:36;3.80;99.90
24802;DHT22;12898;50.520;12.152;2023-02-02T09:38:38;3.80;99.90
24802;DHT22;12898;50.520;12.152;2023-02-02T09:44:11;3.90;99.90
24802;DHT22;12898;50.520;12.152;2023-02-02T09:47:00;3.90;99.90
24802;DHT22;12898;50.520;12.152;2023-02-02T09:57:56;4.00;99.90
24802;DHT22;12898;50.520;12.152;2023-02-02T10:00:29;4.00;99.90
24802;DHT22;12898;50.520;12.152;2023-02-02T10:03:13;3.90;99.90
24802;DHT22;12898;50.520;12.152;2023-02-02T10:06:01;3.90;99.90
24802;DHT22;12898;50.520;12.152;2023-02-02T10:08:50;3.90;99.90
24802;DHT22;12898;50.520;12.152;2023-02-02T10:11:29;3.90;99.90
24802;DHT22;12898;50.520;12.152;2023-02-02T10:16:53;3.80;99.90
24802;DHT22;12898;50.520;12.152;2023-02-02T10:19:22;3.80;99.90
24802;DHT22;12898;50.520;12.152;2023-02-02T10:22:04;3.80;99.90
24802;DHT22;12898;50.520;12.152;2023-02-02T10:24:35;3.80;99.90
24802;DHT22;12898;50.520;12.152;2023-02-02T10:27:08;3.70;99.90
24802;DHT22;12898;50.520;12.152;2023-02-02T10:29:55;3.70;99.90
24802;DHT22;12898;50.520;12.152;2023-02-02T10:32:27;3.70;99.90
24802;DHT22;12898;50.520;12.152;2023-02-02T10:44:32;3.70;99.90
24802;DHT22;12898;50.520;12.152;2023-02-02T10:47:22;3.80;99.90
24802;DHT22;12898;50.520;12.152;2023-02-02T10:50:17;3.70;99.90
24802;DHT22;12898;50.520;12.152;2023-02-02T10:52:50;3.70;99.90
24802;DHT22;12898;50.520;12.152;2023-02-02T10:55:31;3.70;99.90
24802;DHT22;12898;50.520;12.152;2023-02-02T10:58:34;3.80;99.90
24802;DHT22;12898;50.520;12.152;2023-02-02T11:01:00;3.80;99.90
24802;DHT22;12898;50.520;12.152;2023-02-02T11:03:30;3.70;99.90
24802;DHT22;12898;50.520;12.152;2023-02-02T11:06:01;3.70;99.90
24802;DHT22;12898;50.520;12.152;2023-02-02T11:08:52;3.60;99.90
24802;DHT22;12898;50.520;12.152;2023-02-02T11:11:30;3.60;99.90
24802;DHT22;12898;50.520;12.152;2023-02-02T11:16:38;3.60;99.90
24802;DHT22;12898;50.520;12.152;2023-02-02T11:21:48;3.60;99.90
24802;DHT22;12898;50.520;12.152;2023-02-02T11:24:45;3.50;99.90
24802;DHT22;12898;50.520;12.152;2023-02-02T11:27:16;3.50;99.90
24802;DHT22;12898;50.520;12.152;2023-02-02T11:29:50;3.60;99.90
24802;DHT22;12898;50.520;12.152;2023-02-02T11:32:29;3.60;99.90
24802;DHT22;12898;50.520;12.152;2023-02-02T11:37:35;3.50;99.90
24802;DHT22;12898;50.520;12.152;2023-02-02T11:40:29;3.50;99.90
24802;DHT22;12898;50.520;12.152;2023-02-02T11:43:20;3.40;99.90
24802;DHT22;12898;50.520;12.152;2023-02-02T11:45:56;3.30;99.90
24802;DHT22;12898;50.520;12.152;2023-02-02T11:48:28;3.20;99.90
24802;DHT22;12898;50.520;12.152;2023-02-02T11:50:57;3.20;99.90
24802;DHT22;12898;50.520;12.152;2023-02-02T11:53:26;3.20;99.90
24802;DHT22;12898;50.520;12.152;2023-02-02T11:56:08;3.10;99.90
24802;DHT22;12898;50.520;12.152;2023-02-02T12:01:25;3.10;99.90
24802;DHT22;12898;50.520;12.152;2023-02-02T12:03:57;3.20;99.90
24802;DHT22;12898;50.520;12.152;2023-02-02T12:06:25;3.20;99.90
24802;DHT22;12898;50.520;12.152;2023-02-02T12:08:57;3.20;99.90
24802;DHT22;12898;50.520;12.152;2023-02-02T12:17:38;3.40;99.90
24802;DHT22;12898;50.520;12.152;2023-02-02T12:23:26;3.50;99.90
24802;DHT22;12898;50.520;12.152;2023-02-02T12:26:18;3.50;99.90
24802;DHT22;12898;50.520;12.152;2023-02-02T12:29:02;3.50;99.90
24802;DHT22;12898;50.520;12.152;2023-02-02T12:32:19;3.50;99.90
24802;DHT22;12898;50.520;12.152;2023-02-02T12:58:19;3.60;99.90
24802;DHT22;12898;50.520;12.152;2023-02-02T13:01:09;3.60;99.90
24802;DHT22;12898;50.520;12.152;2023-02-02T13:04:28;3.60;99.90
24802;DHT22;12898;50.520;12.152;2023-02-02T13:09:50;3.60;99.90
24802;DHT22;12898;50.520;12.152;2023-02-02T13:12:23;3.70;99.90
24802;DHT22;12898;50.520;12.152;2023-02-02T13:14:54;3.70;99.90
24802;DHT22;12898;50.520;12.152;2023-02-02T13:17:37;3.80;99.90
24802;DHT22;12898;50.520;12.152;2023-02-02T13:20:21;3.70;99.90
24802;DHT22;12898;50.520;12.152;2023-02-02T13:22:54;3.70;99.90
24802;DHT22;12898;50.520;12.152;2023-02-02T13:25:30;3.60;99.90
24802;DHT22;12898;50.520;12.152;2023-02-02T13:28:01;3.60;99.90
24802;DHT22;12898;50.520;12.152;2023-02-02T13:30:35;3.60;99.90
24802;DHT22;12898;50.520;12.152;2023-02-02T13:33:26;3.60;99.90
24802;DHT22;12898;50.520;12.152;2023-02-02T13:35:58;3.60;99.90
24802;DHT22;12898;50.520;12.152;2023-02-02T13:38:28;3.50;99.90
24802;DHT22;12898;50.520;12.152;2023-02-02T13:41:08;3.50;99.90
24802;DHT22;12898;50.520;12.152;2023-02-02T13:43:38;3.40;99.90
24802;DHT22;12898;50.520;12.152;2023-02-02T13:49:41;3.40;99.90
24802;DHT22;12898;50.520;12.152;2023-02-02T13:55:19;3.30;99.90
24802;DHT22;12898;50.520;12.152;2023-02-02T14:01:15;3.30;99.90
24802;DHT22;12898;50.520;12.152;2023-02-02T14:03:55;3.30;99.90
24802;DHT22;12898;50.520;12.152;2023-02-02T14:06:23;3.30;99.90
24802;DHT22;12898;50.520;12.152;2023-02-02T14:08:58;3.30;99.90
24802;DHT22;12898;50.520;12.152;2023-02-02T14:11:34;3.30;99.90
24802;DHT22;12898;50.520;12.152;2023-02-02T14:14:18;3.30;99.90
24802;DHT22;12898;50.520;12.152;2023-02-02T14:29:36;3.20;99.90
24802;DHT22;12898;50.520;12.152;2023-02-02T14:35:50;3.20;99.90
24802;DHT22;12898;50.520;12.152;2023-02-02T14:37:56;3.10;99.90
24802;DHT22;12898;50.520;12.152;2023-02-02T14:43:35;3.10;99.90
24802;DHT22;12898;50.520;12.152;2023-02-02T14:48:48;3.00;99.90
24802;DHT22;12898;50.520;12.152;2023-02-02T14:51:33;3.00;99.90
24802;DHT22;12898;50.520;12.152;2023-02-02T14:54:01;3.00;99.90
24802;DHT22;12898;50.520;12.152;2023-02-02T14:56:42;3.00;99.90
24802;DHT22;12898;50.520;12.152;2023-02-02T14:59:35;3.00;99.90
24802;DHT22;12898;50.520;12.152;2023-02-02T15:02:08;2.90;99.90
24802;DHT22;12898;50.520;12.152;2023-02-02T15:04:48;2.90;99.90
24802;DHT22;12898;50.520;12.152;2023-02-02T15:09:52;2.90;99.90
24802;DHT22;12898;50.520;12.152;2023-02-02T15:12:32;2.80;99.90
24802;DHT22;12898;50.520;12.152;2023-02-02T15:23:00;2.70;99.90
24802;DHT22;12898;50.520;12.152;2023-02-02T15:25:52;2.70;99.90
24802;DHT22;12898;50.520;12.152;2023-02-02T15:28:42;2.70;99.90
24802;DHT22;12898;50.520;12.152;2023-02-02T15:34:21;2.60;99.90
24802;DHT22;12898;50.520;12.152;2023-02-02T15:36:59;2.60;99.90
24802;DHT22;12898;50.520;12.152;2023-02-02T15:39:26;2.60;99.90
24802;DHT22;12898;50.520;12.152;2023-02-02T15:41:54;2.60;99.90
24802;DHT22;12898;50.520;12.152;2023-02-02T15:44:40;2.60;99.90
24802;DHT22;12898;50.520;12.152;2023-02-02T15:47:13;2.50;99.90
24802;DHT22;12898;50.520;12.152;2023-02-02T15:49:40;2.50;99.90
24802;DHT22;12898;50.520;12.152;2023-02-02T15:52:15;2.50;99.90
24802;DHT22;12898;50.520;12.152;2023-02-02T15:54:52;2.50;99.90
24802;DHT22;12898;50.520;12.152;2023-02-02T15:57:34;2.40;99.90
24802;DHT22;12898;50.520;12.152;2023-02-02T16:05:46;2.30;99.90
24802;DHT22;12898;50.520;12.152;2023-02-02T16:08:20;2.30;99.90
24802;DHT22;12898;50.520;12.152;2023-02-02T16:10:49;2.30;99.90
24802;DHT22;12898;50.520;12.152;2023-02-02T16:13:22;2.30;99.90
24802;DHT22;12898;50.520;12.152;2023-02-02T16:16:01;2.30;99.90
24802;DHT22;12898;50.520;12.152;2023-02-02T16:18:32;2.20;99.90
24802;DHT22;12898;50.520;12.152;2023-02-02T16:21:02;2.20;99.90
24802;DHT22;12898;50.520;12.152;2023-02-02T16:23:34;2.20;99.90
24802;DHT22;12898;50.520;12.152;2023-02-02T16:26:02;2.20;99.90
24802;DHT22;12898;50.520;12.152;2023-02-02T16:28:30;2.10;99.90
24802;DHT22;12898;50.520;12.152;2023-02-02T16:30:59;2.10;99.90
24802;DHT22;12898;50.520;12.152;2023-02-02T16:33:28;2.10;99.90
24802;DHT22;12898;50.520;12.152;2023-02-02T16:35:59;2.10;99.90
24802;DHT22;12898;50.520;12.152;2023-02-02T16:38:32;2.10;99.90
24802;DHT22;12898;50.520;12.152;2023-02-02T16:41:08;2.10;99.90
24802;DHT22;12898;50.520;12.152;2023-02-02T16:43:37;2.10;99.90
24802;DHT22;12898;50.520;12.152;2023-02-02T16:46:11;2.10;99.90
24802;DHT22;12898;50.520;12.152;2023-02-02T16:48:41;2.10;99.90
24802;DHT22;12898;50.520;12.152;2023-02-02T16:51:22;2.10;99.90
24802;DHT22;12898;50.520;12.152;2023-02-02T16:54:21;2.10;99.90
24802;DHT22;12898;50.520;12.152;2023-02-02T16:56:50;2.10;99.90
24802;DHT22;12898;50.520;12.152;2023-02-02T16:59:34;2.00;99.90
24802;DHT22;12898;50.520;12.152;2023-02-02T17:05:06;2.00;99.90
24802;DHT22;12898;50.520;12.152;2023-02-02T17:07:46;2.10;99.90
24802;DHT22;12898;50.520;12.152;2023-02-02T17:12:43;2.10;99.90
24802;DHT22;12898;50.520;12.152;2023-02-02T17:17:45;2.10;99.90
24802;DHT22;12898;50.520;12.152;2023-02-02T17:20:15;2.00;99.90
24802;DHT22;12898;50.520;12.152;2023-02-02T17:22:44;2.10;99.90
24802;DHT22;12898;50.520;12.152;2023-02-02T17:25:18;2.00;99.90
24802;DHT22;12898;50.520;12.152;2023-02-02T17:27:46;2.10;99.90
24802;DHT22;12898;50.520;12.152;2023-02-02T17:30:16;2.10;99.90
24802;DHT22;12898;50.520;12.152;2023-02-02T17:32:43;2.10;99.90
24802;DHT22;12898;50.520;12.152;2023-02-02T17:35:18;2.10;99.90
24802;DHT22;12898;50.520;12.152;2023-02-02T17:37:48;2.10;99.90
24802;DHT22;12898;50.520;12.152;2023-02-02T17:40:18;2.10;99.90
24802;DHT22;12898;50.520;12.152;2023-02-02T17:42:47;2.10;99.90
24802;DHT22;12898;50.520;12.152;2023-02-02T17:45:32;2.10;99.90
24802;DHT22;12898;50.520;12.152;2023-02-02T17:47:58;2.10;99.90
24802;DHT22;12898;50.520;12.152;2023-02-02T17:50:28;2.10;99.90
24802;DHT22;12898;50.520;12.152;2023-02-02T17:52:54;2.10;99.90
24802;DHT22;12898;50.520;12.152;2023-02-02T17:55:37;2.10;99.90
24802;DHT22;12898;50.520;12.152;2023-02-02T17:58:04;2.10;99.90
24802;DHT22;12898;50.520;12.152;2023-02-02T18:00:31;2.10;99.90
24802;DHT22;12898;50.520;12.152;2023-02-02T18:03:00;2.10;99.90
24802;DHT22;12898;50.520;12.152;2023-02-02T18:05:36;2.00;99.90
24802;DHT22;12898;50.520;12.152;2023-02-02T18:08:02;2.00;99.90
24802;DHT22;12898;50.520;12.152;2023-02-02T18:10:28;2.00;99.90
24802;DHT22;12898;50.520;12.152;2023-02-02T18:12:55;2.00;99.90
24802;DHT22;12898;50.520;12.152;2023-02-02T18:15:21;2.00;99.90
24802;DHT22;12898;50.520;12.152;2023-02-02T18:17:47;2.00;99.90
24802;DHT22;12898;50.520;12.152;2023-02-02T18:20:14;2.00;99.90
24802;DHT22;12898;50.520;12.152;2023-02-02T18:22:41;2.00;99.90
24802;DHT22;12898;50.520;12.152;2023-02-02T18:25:13;2.00;99.90
24802;DHT22;12898;50.520;12.152;2023-02-02T18:27:39;2.00;99.90
24802;DHT22;12898;50.520;12.152;2023-02-02T18:30:05;2.00;99.90